Time;durP1;ratioP1;P1;durP2;ratioP2;P2;SDS_P1;SDS_P2;PMS_P1;PMS_P2;Temp;Humidity;BMP_temperature;BMP_pressure;BME280_temperature;BME280_humidity;BME280_pressure;Samples;Min_cycle;Max_cycle;Signal;HPM_P1;HPM_P2
2021/03/07 00:00:39;;;;;;;30.55;15.43;;;-2.30;99.90;;;-1.62;86.03;101853.75;5052510;28;20029;-79
2021/03/07 00:03:05;;;;;;;32.58;16.80;;;-2.40;99.90;;;-1.63;86.04;101855.66;5036511;28;20040;-79
2021/03/07 00:05:33;;;;;;;31.50;16.65;;;-2.40;99.90;;;-1.68;86.13;101850.09;5035308;28;20071;-79
2021/03/07 00:08:00;;;;;;;30.52;15.90;;;-2.40;99.90;;;-1.67;86.49;101856.41;5036698;28;20025;-79
2021/03/07 00:10:27;;;;;;;25.92;15.55;;;-2.40;99.90;;;-1.70;86.36;101849.50;5045760;28;20036;-79
2021/03/07 00:12:53;;;;;;;31.17;17.27;;;-2.40;99.90;;;-1.70;86.34;101849.50;5053582;28;20021;-79
2021/03/07 00:15:21;;;;;;;34.17;17.00;;;-2.50;99.90;;;-1.73;86.29;101851.91;5043011;28;20034;-78
2021/03/07 00:17:48;;;;;;;32.33;16.70;;;-2.50;99.90;;;-1.77;86.61;101843.38;5051926;28;20090;-80
2021/03/07 00:20:18;;;;;;;33.88;16.70;;;-2.50;99.90;;;-1.77;87.10;101848.03;5046299;28;20028;-80
2021/03/07 00:22:46;;;;;;;25.52;15.52;;;-2.50;99.90;;;-1.79;87.33;101845.50;5049783;28;20032;-75
2021/03/07 00:25:16;;;;;;;25.83;16.60;;;-2.50;99.90;;;-1.77;87.16;101842.53;5051441;28;20464;-78
2021/03/07 00:27:42;;;;;;;25.13;14.88;;;-2.50;99.90;;;-1.72;87.13;101837.97;5045108;28;20401;-79
2021/03/07 00:30:16;;;;;;;26.55;15.07;;;-2.50;99.90;;;-1.63;87.30;101838.38;5043851;28;20025;-78
2021/03/07 00:32:45;;;;;;;29.17;16.40;;;-2.40;99.90;;;-1.59;87.28;101845.03;5048733;28;20029;-79
2021/03/07 00:35:13;;;;;;;26.35;15.38;;;-2.40;99.90;;;-1.61;87.09;101848.00;5040064;28;20037;-78
2021/03/07 00:37:40;;;;;;;28.35;16.42;;;-2.40;99.90;;;-1.61;87.24;101842.53;5043752;28;20040;-79
2021/03/07 00:40:10;;;;;;;29.45;16.20;;;-2.40;99.90;;;-1.57;86.97;101847.53;5045428;28;20036;-80
2021/03/07 00:42:48;;;;;;;25.88;15.50;;;-2.40;99.90;;;-1.67;86.66;101839.97;5045263;28;20033;-82
2021/03/07 00:45:17;;;;;;;29.00;15.48;;;-2.40;99.90;;;-1.74;87.14;101837.41;5069551;28;20040;-80
2021/03/07 00:47:44;;;;;;;40.47;19.33;;;-2.50;99.90;;;-1.75;86.95;101843.13;5054402;28;20057;-79
2021/03/07 00:50:22;;;;;;;27.73;16.50;;;-2.50;99.90;;;-1.82;87.12;101834.22;5048874;28;20573;-80
2021/03/07 00:52:48;;;;;;;32.22;15.95;;;-2.50;99.90;;;-1.89;87.16;101842.59;5037900;28;20033;-79
2021/03/07 00:55:14;;;;;;;33.67;17.00;;;-2.60;99.90;;;-1.91;87.64;101838.44;5055521;28;20417;-81
2021/03/07 00:57:40;;;;;;;38.20;17.95;;;-2.60;99.90;;;-1.88;87.38;101833.31;5050752;28;20039;-80
2021/03/07 01:00:25;;;;;;;33.42;17.55;;;-2.60;99.90;;;-1.88;87.11;101837.94;5049531;28;20044;-79
2021/03/07 01:03:08;;;;;;;30.50;16.55;;;-2.60;99.90;;;-1.96;87.41;101822.78;5063504;28;20075;-80
2021/03/07 01:05:52;;;;;;;24.92;16.02;;;-2.60;99.90;;;-2.00;87.52;101828.97;5059050;28;20025;-80
2021/03/07 01:08:40;;;;;;;28.27;14.55;;;-2.70;99.90;;;-2.04;87.04;101836.84;5062287;28;20036;-80
2021/03/07 01:11:15;;;;;;;28.95;14.73;;;-2.70;99.90;;;-2.01;87.53;101828.16;5059552;28;20610;-81
2021/03/07 01:13:50;;;;;;;26.87;15.67;;;-2.70;99.90;;;-2.02;87.24;101817.47;5073183;28;20029;-81
2021/03/07 01:16:25;;;;;;;25.20;14.15;;;-2.70;99.90;;;-1.99;87.38;101834.19;5067212;28;20021;-81
2021/03/07 01:19:06;;;;;;;26.67;14.27;;;-2.70;99.90;;;-2.07;87.08;101831.88;5068020;28;20025;-80
2021/03/07 01:21:51;;;;;;;30.88;16.42;;;-2.80;99.90;;;-2.17;87.48;101818.00;5053796;28;20059;-81
2021/03/07 01:24:28;;;;;;;29.13;15.32;;;-2.80;99.90;;;-2.18;87.83;101825.38;5068239;28;20090;-80
2021/03/07 01:27:15;;;;;;;27.25;14.90;;;-2.90;99.90;;;-2.16;87.69;101814.19;5059128;28;20040;-80
2021/03/07 01:30:17;;;;;;;26.17;15.27;;;-2.80;99.90;;;-2.02;88.27;101817.47;5058915;28;20052;-81
2021/03/07 01:32:52;;;;;;;28.85;15.50;;;-2.80;99.90;;;-2.08;87.83;101812.94;5057964;28;20049;-80
2021/03/07 01:35:26;;;;;;;26.00;15.40;;;-2.80;99.90;;;-1.98;88.88;101813.97;5063487;28;20030;-81
2021/03/07 01:38:24;;;;;;;28.65;15.57;;;-2.80;99.90;;;-1.91;88.18;101802.84;5059244;28;20033;-81
2021/03/07 01:40:57;;;;;;;23.90;14.55;;;-2.70;99.90;;;-2.01;87.82;101798.03;5053851;28;20029;-80
2021/03/07 01:43:45;;;;;;;25.88;15.25;;;-2.80;99.90;;;-2.07;88.34;101800.91;5052382;28;20040;-79
2021/03/07 01:46:19;;;;;;;26.23;14.95;;;-2.80;99.90;;;-2.13;88.38;101795.38;5053102;28;20021;-81
2021/03/07 01:48:47;;;;;;;24.60;15.30;;;-2.90;99.90;;;-2.14;88.37;101801.91;5079535;28;20029;-81
2021/03/07 01:51:14;;;;;;;26.40;15.05;;;-2.90;99.90;;;-2.16;88.49;101790.38;5058835;28;20043;-80
2021/03/07 01:53:41;;;;;;;25.27;14.82;;;-2.90;99.90;;;-2.14;89.06;101798.34;5078400;28;20040;-81
2021/03/07 01:56:14;;;;;;;24.30;14.63;;;-2.90;99.90;;;-2.14;89.12;101793.69;5065954;28;20040;-78
2021/03/07 01:58:55;;;;;;;27.30;15.77;;;-2.90;99.90;;;-2.15;89.50;101785.72;5064241;28;20039;-80
2021/03/07 02:01:43;;;;;;;26.60;15.65;;;-2.80;99.90;;;-2.17;89.45;101794.19;5073231;28;20056;-80
2021/03/07 02:04:09;;;;;;;32.30;17.27;;;-2.90;99.90;;;-2.15;89.19;101785.72;5062566;28;20029;-80
2021/03/07 02:06:40;;;;;;;34.58;19.27;;;-2.80;99.90;;;-2.13;89.93;101791.78;5059795;28;20064;-81
2021/03/07 02:09:07;;;;;;;35.10;17.77;;;-2.80;99.90;;;-2.10;89.74;101785.81;5054951;28;20086;-80
2021/03/07 02:11:40;;;;;;;31.25;17.35;;;-2.80;99.90;;;-2.03;90.07;101782.94;5058596;28;20040;-80
2021/03/07 02:14:12;;;;;;;29.35;16.20;;;-2.80;99.90;;;-1.95;89.84;101777.03;5051173;28;20053;-79
2021/03/07 02:16:38;;;;;;;32.83;16.48;;;-2.70;99.90;;;-1.92;89.88;101771.06;5062148;28;20097;-78
2021/03/07 02:19:08;;;;;;;26.73;15.73;;;-2.70;99.90;;;-1.88;89.61;101774.97;5067698;28;20033;-79
2021/03/07 02:21:49;;;;;;;33.90;16.92;;;-2.60;99.90;;;-1.94;89.45;101771.31;5067039;28;20037;-80
2021/03/07 02:24:17;;;;;;;28.50;14.73;;;-2.60;99.90;;;-1.94;89.72;101765.00;5060202;28;20101;-80
2021/03/07 02:26:52;;;;;;;29.38;15.05;;;-2.70;99.90;;;-1.88;89.87;101767.59;5056446;28;20033;-80
2021/03/07 02:29:22;;;;;;;29.98;15.60;;;-2.60;99.90;;;-1.86;89.53;101762.69;5055438;28;20021;-81
2021/03/07 02:32:13;;;;;;;23.90;14.13;;;-2.60;99.90;;;-1.84;89.37;101759.72;5052497;28;20056;-80
2021/03/07 02:34:55;;;;;;;26.10;13.77;;;-2.60;99.90;;;-1.84;89.18;101755.06;5056570;28;20029;-80
2021/03/07 02:37:23;;;;;;;28.83;12.90;;;-2.60;99.90;;;-1.80;89.05;101749.94;5047794;28;20025;-81
2021/03/07 02:39:52;;;;;;;30.45;14.65;;;-2.60;99.90;;;-1.82;89.16;101757.53;5059725;28;20089;-80
2021/03/07 02:42:28;;;;;;;25.00;14.80;;;-2.60;99.90;;;-1.84;89.38;101746.03;5054754;28;20039;-80
2021/03/07 02:45:31;;;;;;;26.38;15.02;;;-2.60;99.90;;;-1.83;89.47;101745.75;5048714;28;20044;-81
2021/03/07 02:49:11;;;;;;;29.83;15.77;;;-2.60;99.90;;;-1.81;89.33;101738.13;5075055;28;20033;-81
2021/03/07 02:52:30;;;;;;;30.15;15.45;;;-2.60;99.90;;;-1.77;89.19;101743.94;5064263;28;20048;-80
2021/03/07 02:55:43;;;;;;;29.55;15.77;;;-2.60;99.90;;;-1.79;89.19;101735.97;5039262;28;20048;-82
2021/03/07 03:03:30;;;;;;;25.13;14.07;;;-2.60;99.90;;;-1.85;89.23;101736.13;4994060;28;20046;-77
2021/03/07 03:07:06;;;;;;;28.60;13.68;;;-2.60;99.90;;;-1.95;88.92;101725.84;5016129;28;20045;-78
2021/03/07 03:14:03;;;;;;;23.90;14.68;;;-2.80;99.90;;;-2.13;88.77;101720.63;4986848;28;20035;-81
2021/03/07 03:17:13;;;;;;;;;;;;;;;;;;;;;
2021/03/07 03:20:46;;;;;;;23.45;13.77;;;-2.90;99.90;;;-2.25;88.70;101726.16;5048461;28;20056;-80
2021/03/07 03:23:19;;;;;;;25.30;13.93;;;-3.00;99.90;;;-2.33;88.83;101720.28;5051497;28;21054;-81
2021/03/07 03:25:51;;;;;;;26.10;13.60;;;-3.10;99.90;;;-2.33;88.82;101720.28;5065524;28;20097;-81
2021/03/07 03:28:20;;;;;;;24.35;14.20;;;-3.10;99.90;;;-2.29;89.02;101721.44;5085935;28;20068;-81
2021/03/07 03:30:48;;;;;;;23.33;13.38;;;-3.10;99.90;;;-2.40;88.55;101708.66;5076560;28;20028;-80
2021/03/07 03:33:14;;;;;;;26.02;13.20;;;-3.10;99.90;;;-2.51;88.58;101715.03;5047592;28;20039;-79
2021/03/07 03:35:40;;;;;;;24.42;13.45;;;-3.20;99.90;;;-2.61;88.91;101707.47;5067311;28;20052;-79
2021/03/07 03:38:09;;;;;;;25.52;13.90;;;-3.30;99.90;;;-2.61;89.25;101709.38;5070828;28;20044;-79
2021/03/07 03:40:38;;;;;;;27.42;14.05;;;-3.30;99.90;;;-2.61;89.62;101712.94;5070375;28;20017;-76
2021/03/07 03:43:10;;;;;;;26.33;14.23;;;-3.30;99.90;;;-2.58;89.72;101701.50;5066024;28;20298;-81
2021/03/07 03:45:41;;;;;;;24.90;14.88;;;-3.30;99.90;;;-2.46;90.36;101704.16;5042453;28;20036;-81
2021/03/07 03:48:16;;;;;;;26.48;14.63;;;-3.20;99.90;;;-2.39;90.31;101713.88;5051164;28;20040;-80
2021/03/07 03:50:45;;;;;;;24.02;14.02;;;-3.10;99.90;;;-2.41;89.92;101704.28;5038177;28;20123;-81
2021/03/07 03:53:20;;;;;;;30.10;15.35;;;-3.20;99.90;;;-2.47;89.97;101700.59;5048756;28;20029;-81
2021/03/07 03:55:52;;;;;;;29.17;15.55;;;-3.20;99.90;;;-2.50;90.22;101698.34;5035339;28;20041;-79
2021/03/07 03:58:30;;;;;;;27.27;14.07;;;-3.20;99.90;;;-2.52;90.07;101697.78;5055383;28;20043;-79
2021/03/07 04:00:58;;;;;;;25.20;15.00;;;-3.20;99.90;;;-2.49;90.39;101701.91;5062652;28;20030;-80
2021/03/07 04:03:25;;;;;;;26.30;15.45;;;-3.20;99.90;;;-2.49;90.34;101693.72;5073766;28;20045;-80
2021/03/07 04:05:52;;;;;;;23.27;14.50;;;-3.20;99.90;;;-2.46;90.71;101693.22;5074830;28;20024;-81
2021/03/07 04:08:22;;;;;;;27.15;14.88;;;-3.20;99.90;;;-2.42;91.07;101694.41;5037523;28;20033;-81
2021/03/07 04:10:52;;;;;;;27.85;15.60;;;-3.10;99.90;;;-2.33;91.77;101699.22;5036500;28;20492;-81
2021/03/07 04:13:27;;;;;;;30.55;16.20;;;-3.00;99.90;;;-2.19;91.71;101686.03;5049288;28;20033;-80
2021/03/07 04:15:55;;;;;;;;;;;-2.90;99.90;;;-2.09;91.34;101688.94;5037555;28;20025;-79
2021/03/07 04:18:26;;;;;;;25.63;13.98;;;-2.80;99.90;;;-2.06;91.25;101685.72;5053917;28;19916;-79
2021/03/07 04:20:54;;;;;;;24.05;13.00;;;-2.80;99.90;;;-2.09;90.36;101688.94;5074751;28;20095;-76
2021/03/07 04:23:21;;;;;;;24.33;13.88;;;-2.80;99.90;;;-2.12;90.72;101690.25;5075097;28;20027;-81
2021/03/07 04:25:47;;;;;;;25.58;13.63;;;-2.80;99.90;;;-2.19;90.48;101686.88;5069245;28;20032;-79
2021/03/07 04:28:14;;;;;;;24.63;13.40;;;-2.90;99.90;;;-2.21;90.35;101693.66;5066329;28;20515;-81
2021/03/07 04:30:41;;;;;;;25.55;13.13;;;-2.90;99.90;;;-2.29;89.88;101696.81;5040616;28;20432;-80
2021/03/07 04:33:08;;;;;;;24.45;13.18;;;-3.10;99.90;;;-2.33;89.92;101687.44;5044751;28;20057;-79
2021/03/07 04:35:39;;;;;;;26.58;13.57;;;-3.10;99.90;;;-2.39;89.87;101691.16;5044354;28;20029;-79
2021/03/07 04:38:07;;;;;;;24.63;13.98;;;-3.10;99.90;;;-2.46;89.84;101690.47;5054677;28;20033;-79
2021/03/07 04:40:37;;;;;;;26.23;13.93;;;-3.20;99.90;;;-2.46;90.45;101687.75;5042581;28;20502;-79
2021/03/07 04:43:05;;;;;;;22.05;13.68;;;-3.20;99.90;;;-2.46;89.78;101680.38;5041701;28;20029;-78
2021/03/07 04:45:33;;;;;;;27.50;13.60;;;-3.20;99.90;;;-2.48;89.98;101682.53;5044695;28;20028;-79
2021/03/07 04:48:00;;;;;;;26.85;13.65;;;-3.20;99.90;;;-2.53;89.86;101676.13;5034135;28;20462;-79
2021/03/07 04:50:26;;;;;;;25.20;12.88;;;-3.20;99.90;;;-2.57;89.80;101683.19;5041773;28;20037;-81
2021/03/07 04:52:52;;;;;;;23.55;13.05;;;-3.30;99.90;;;-2.64;89.84;101677.03;5043724;28;20064;-78
2021/03/07 04:55:18;;;;;;;29.67;14.57;;;-3.30;99.90;;;-2.67;90.18;101678.38;5043825;28;20056;-79
2021/03/07 04:57:44;;;;;;;22.75;13.20;;;-3.30;99.90;;;-2.59;90.20;101677.13;5050902;28;20040;-82
2021/03/07 05:00:15;;;;;;;23.90;13.25;;;-3.30;99.90;;;-2.51;90.20;101669.34;5046640;28;20033;-80
2021/03/07 05:02:41;;;;;;;27.33;13.63;;;-3.20;99.90;;;-2.49;90.08;101682.78;5049821;28;20124;-79
2021/03/07 05:05:08;;;;;;;25.83;13.40;;;-3.20;99.90;;;-2.51;89.99;101671.25;5050780;28;20029;-80
2021/03/07 05:07:35;;;;;;;22.77;12.90;;;-3.20;99.90;;;-2.55;89.74;101678.28;5045799;28;20033;-81
2021/03/07 05:10:06;;;;;;;23.95;13.85;;;-3.30;99.90;;;-2.61;90.05;101665.59;5041358;28;20116;-82
2021/03/07 05:12:33;;;;;;;25.00;14.02;;;-3.30;99.90;;;-2.60;90.22;101661.81;5040430;28;20029;-83
2021/03/07 05:14:59;;;;;;;24.77;13.15;;;-3.30;99.90;;;-2.60;89.64;101667.28;5063452;28;20059;-79
2021/03/07 05:17:27;;;;;;;23.45;13.90;;;-3.30;99.90;;;-2.58;89.77;101670.59;5058586;28;20030;-77
2021/03/07 05:19:53;;;;;;;23.95;13.13;;;-3.30;99.90;;;-2.53;89.89;101660.56;5043448;28;20029;-80
2021/03/07 05:22:19;;;;;;;20.80;13.52;;;-3.30;99.90;;;-2.69;89.79;101655.88;5066652;28;20562;-80
2021/03/07 05:24:45;;;;;;;22.20;12.93;;;-3.30;99.90;;;-2.70;89.88;101654.25;5054300;28;20025;-76
2021/03/07 05:27:11;;;;;;;21.08;13.55;;;-3.40;99.90;;;-2.71;89.68;101667.09;5044092;28;20516;-80
2021/03/07 05:29:38;;;;;;;22.92;13.05;;;-3.40;99.90;;;-2.79;89.39;101661.16;5051540;28;20040;-79
2021/03/07 05:32:06;;;;;;;22.13;12.98;;;-3.50;99.90;;;-2.86;89.17;101655.03;5053149;28;20033;-79
2021/03/07 05:34:32;;;;;;;22.45;13.00;;;-3.60;99.90;;;-2.94;89.21;101656.25;5036416;28;20029;-79
2021/03/07 05:36:59;;;;;;;21.85;11.82;;;-3.60;99.90;;;-3.01;89.25;101649.25;5052125;28;20110;-78
2021/03/07 05:39:26;;;;;;;22.92;12.73;;;-3.70;99.90;;;-3.10;89.33;101651.56;5042585;28;20120;-79
2021/03/07 05:41:54;;;;;;;24.08;12.70;;;-3.80;99.90;;;-3.26;88.77;101649.59;5042781;28;20032;-79
2021/03/07 05:44:21;;;;;;;22.77;13.25;;;-3.90;99.90;;;-3.32;89.21;101642.38;5035633;28;20037;-81
2021/03/07 05:46:47;;;;;;;19.80;12.20;;;-4.00;99.90;;;-3.34;88.93;101644.53;5036441;28;20045;-79
2021/03/07 05:49:13;;;;;;;24.08;13.00;;;-4.00;99.90;;;-3.42;88.92;101636.72;5046545;28;20029;-80
2021/03/07 05:51:44;;;;;;;23.42;12.57;;;-4.00;99.90;;;-3.50;88.98;101639.84;5040488;28;20029;-80
2021/03/07 05:54:12;;;;;;;22.27;12.02;;;-4.10;99.90;;;-3.51;88.90;101646.34;5041211;28;20033;-80
2021/03/07 05:56:40;;;;;;;25.75;13.00;;;-4.10;99.90;;;-3.48;89.49;101648.59;5045920;28;20368;-80
2021/03/07 05:59:07;;;;;;;25.35;12.60;;;-4.20;99.90;;;-3.45;89.46;101650.84;5034696;28;20517;-79
2021/03/07 06:01:35;;;;;;;22.67;12.90;;;-4.10;99.90;;;-3.45;89.66;101648.94;5040695;28;20025;-79
2021/03/07 06:04:05;;;;;;;23.17;13.13;;;-4.10;99.90;;;-3.44;89.55;101644.31;5059783;28;20033;-79
2021/03/07 06:06:32;;;;;;;22.48;13.00;;;-4.10;99.90;;;-3.49;89.53;101639.56;5038162;28;20093;-81
2021/03/07 06:09:28;;;;;;;23.38;13.60;;;-4.10;99.90;;;-3.52;89.53;101633.75;5044357;28;20378;-77
2021/03/07 06:11:58;;;;;;;29.05;13.95;;;-4.20;99.90;;;-3.53;90.04;101632.94;5053154;28;20025;-81
2021/03/07 06:14:31;;;;;;;20.05;12.63;;;-4.20;99.90;;;-3.48;90.26;101635.78;5047763;28;20119;-81
2021/03/07 06:17:14;;;;;;;24.92;13.77;;;-4.10;99.90;;;-3.43;90.15;101627.69;5047194;28;20112;-79
2021/03/07 06:20:03;;;;;;;25.17;14.10;;;-4.10;99.90;;;-3.34;90.21;101639.06;5042814;28;20028;-79
2021/03/07 06:22:32;;;;;;;22.23;13.57;;;-4.10;99.90;;;-3.23;89.88;101635.47;5058602;28;20028;-79
2021/03/07 06:25:03;;;;;;;25.33;13.50;;;-4.00;99.90;;;-3.13;89.90;101638.38;5056224;28;20573;-80
2021/03/07 06:27:29;;;;;;;20.55;12.85;;;-3.90;99.90;;;-3.06;90.00;101635.50;5048547;28;20033;-78
2021/03/07 06:30:18;;;;;;;25.98;14.10;;;-3.80;99.90;;;-2.96;89.45;101636.56;5050223;28;20378;-79
2021/03/07 06:32:54;;;;;;;20.77;11.65;;;-3.80;99.90;;;-2.90;89.85;101638.31;5048626;28;20035;-79
2021/03/07 06:35:29;;;;;;;22.98;12.15;;;-3.70;99.90;;;-2.80;89.44;101640.38;5065436;28;20460;-80
2021/03/07 06:38:03;;;;;;;16.23;9.63;;;-3.60;99.90;;;-2.70;89.39;101627.69;5038997;28;20033;-80
2021/03/07 06:40:45;;;;;;;24.80;13.60;;;-3.60;99.90;;;-2.54;89.38;101638.94;5053558;28;20080;-78
2021/03/07 06:43:26;;;;;;;26.33;13.70;;;-3.40;99.90;;;-2.37;89.21;101637.84;5055580;28;20056;-79
2021/03/07 06:45:53;;;;;;;25.35;14.55;;;-3.30;99.90;;;-2.21;89.09;101641.66;5046979;28;20021;-80
2021/03/07 06:48:19;;;;;;;24.52;13.57;;;-3.20;99.90;;;-2.12;89.08;101637.44;5052854;28;20055;-79
2021/03/07 06:51:26;;;;;;;27.50;12.88;;;-3.10;99.90;;;-1.98;88.55;101637.91;5055366;28;20112;-79
2021/03/07 06:53:52;;;;;;;22.33;12.65;;;-2.90;99.90;;;-1.88;88.38;101638.88;5030913;28;20040;-81
2021/03/07 06:56:44;;;;;;;21.27;12.10;;;-2.80;99.90;;;-1.63;88.45;101644.72;5045885;28;20017;-81
2021/03/07 06:59:15;;;;;;;20.77;13.27;;;-2.60;99.90;;;-1.37;87.71;101648.63;5060541;28;20025;-77
2021/03/07 07:01:46;;;;;;;20.10;13.10;;;-2.40;99.90;;;-1.08;87.90;101643.75;5053201;28;20026;-83
2021/03/07 07:04:14;;;;;;;17.73;12.23;;;-2.20;99.90;;;-0.80;87.39;101637.19;5037088;28;20022;-80
2021/03/07 07:07:01;;;;;;;21.40;12.95;;;-1.90;99.90;;;-0.54;86.61;101633.59;5048884;28;20024;-79
2021/03/07 07:09:27;;;;;;;20.33;12.35;;;-1.70;99.90;;;-0.19;86.45;101642.16;5052237;28;20039;-80
2021/03/07 07:11:54;;;;;;;17.10;11.27;;;-1.40;99.90;;;0.05;85.50;101647.28;5053405;28;20021;-82
2021/03/07 07:14:40;;;;;;;18.45;11.90;;;-1.30;99.90;;;0.23;84.76;101644.91;5045752;28;20061;-80
2021/03/07 07:17:18;;;;;;;;;;;-1.10;99.90;;;0.51;83.99;101644.50;5050820;28;20033;-82
2021/03/07 07:19:47;;;;;;;17.33;11.63;;;-0.90;99.90;;;0.81;82.72;101641.09;5050474;28;19908;-85
2021/03/07 07:22:17;;;;;;;16.98;10.98;;;-0.60;99.90;;;1.11;81.05;101637.59;5065641;28;20029;-82
2021/03/07 07:24:44;;;;;;;15.27;10.80;;;-0.30;99.90;;;1.33;80.16;101643.72;5046804;28;20377;-84
2021/03/07 07:27:11;;;;;;;17.83;11.43;;;-0.10;99.90;;;1.55;79.23;101640.69;5050417;28;20539;-84
2021/03/07 07:29:39;;;;;;;15.70;10.80;;;0.10;99.90;;;1.71;77.99;101644.28;5053748;28;20025;-81
2021/03/07 07:32:43;;;;;;;15.48;10.93;;;0.30;99.90;;;1.91;77.78;101636.03;5051335;28;20052;-81
2021/03/07 07:35:26;;;;;;;18.63;11.25;;;0.50;99.90;;;2.02;76.95;101646.75;5034034;28;20033;-80
2021/03/07 07:37:59;;;;;;;16.42;10.43;;;0.60;99.90;;;2.22;76.14;101647.81;5035118;28;20053;-82
2021/03/07 07:40:44;;;;;;;18.80;12.00;;;0.80;99.90;;;2.38;75.42;101650.28;5034518;28;20036;-79
2021/03/07 07:43:11;;;;;;;15.32;10.55;;;1.00;99.90;;;2.43;74.55;101652.22;5040618;28;20061;-82
2021/03/07 07:45:39;;;;;;;16.05;10.45;;;1.00;99.90;;;2.42;74.80;101645.03;5041554;28;20036;-81
2021/03/07 07:48:06;;;;;;;17.13;9.70;;;1.10;99.90;;;2.31;74.84;101643.41;5053462;28;20037;-82
2021/03/07 07:50:38;;;;;;;19.20;11.68;;;1.00;99.90;;;2.36;74.73;101641.47;5053024;28;20141;-81
2021/03/07 07:53:26;;;;;;;15.05;10.20;;;1.10;99.90;;;2.59;74.13;101645.53;5036166;28;20397;-79
2021/03/07 07:55:58;;;;;;;23.30;11.10;;;1.20;99.90;;;2.80;73.17;101640.75;5035121;28;20033;-82
2021/03/07 07:58:40;;;;;;;18.00;11.48;;;1.40;99.90;;;2.96;73.01;101637.66;5015718;28;556610;-80
2021/03/07 08:01:12;;;;;;;15.52;10.85;;;1.60;99.90;;;3.25;71.46;101640.53;5046341;28;20042;-81
2021/03/07 08:03:46;;;;;;;15.82;11.05;;;1.80;99.90;;;3.51;71.23;101642.03;5048977;28;20036;-81
2021/03/07 08:06:40;;;;;;;17.92;11.27;;;2.10;99.90;;;3.65;69.70;101642.22;5036072;28;20029;-84
2021/03/07 08:09:45;;;;;;;17.73;11.38;;;2.30;99.90;;;3.99;69.19;101642.19;5038298;28;20037;-85
2021/03/07 08:12:42;;;;;;;16.25;10.23;;;2.50;99.90;;;4.20;68.66;101638.13;5036838;28;20029;-83
2021/03/07 08:15:26;;;;;;;16.23;11.00;;;2.80;99.90;;;4.53;68.06;101642.72;5046563;28;20042;-83
2021/03/07 08:17:58;;;;;;;18.38;11.48;;;3.00;99.90;;;4.76;66.74;101630.00;5042041;28;20039;-84
2021/03/07 08:20:39;;;;;;;20.08;12.25;;;3.20;99.90;;;5.15;65.99;101627.00;5042685;28;20033;-86
2021/03/07 08:23:22;;;;;;;17.27;11.05;;;3.50;99.90;;;5.45;66.15;101629.34;5057060;28;20116;-81
2021/03/07 08:25:53;;;;;;;17.08;11.90;;;3.70;99.90;;;5.76;64.86;101619.44;5048953;28;20028;-81
2021/03/07 08:31:06;;;;;;;23.45;16.23;;;4.30;99.90;;;6.06;63.26;101607.03;5038517;28;20049;-80
2021/03/07 08:33:40;;;;;;;31.08;20.55;;;4.40;99.90;;;6.15;63.19;101605.19;5042952;28;20480;-87
2021/03/07 08:36:19;;;;;;;20.27;16.05;;;4.60;99.90;;;6.28;62.90;101609.09;5053830;28;20180;-86
2021/03/07 08:38:54;;;;;;;24.75;16.52;;;4.70;99.90;;;6.10;63.00;101610.00;5054668;28;20031;-84
2021/03/07 08:41:46;;;;;;;23.47;16.70;;;4.70;99.90;;;6.25;62.51;101605.00;5053783;28;20474;-85
2021/03/07 08:44:18;;;;;;;24.77;17.60;;;4.80;99.90;;;6.61;62.77;101604.31;5039299;28;20325;-83
2021/03/07 08:46:47;;;;;;;25.80;16.38;;;5.00;99.90;;;6.83;61.28;101596.91;5055554;28;20033;-83
2021/03/07 08:49:22;;;;;;;27.42;17.20;;;5.20;99.90;;;7.20;60.98;101597.72;5048013;28;20022;-82
2021/03/07 08:52:00;;;;;;;24.88;16.63;;;5.40;99.90;;;7.47;59.56;101599.63;5040942;28;20026;-83
2021/03/07 08:54:32;;;;;;;21.63;15.55;;;5.60;99.90;;;7.81;58.96;101589.56;5056231;28;20033;-84
2021/03/07 08:57:08;;;;;;;21.05;15.07;;;5.80;99.90;;;8.04;58.64;101587.59;5050957;28;20064;-80
2021/03/07 08:59:35;;;;;;;21.50;14.85;;;6.00;99.90;;;7.92;57.25;101579.84;5037715;28;20063;-80
2021/03/07 09:02:04;;;;;;;23.98;16.85;;;6.20;99.90;;;7.81;57.13;101584.00;5037204;28;20192;-81
2021/03/07 09:04:38;;;;;;;22.75;13.93;;;6.30;99.90;;;7.61;58.16;101587.28;5053160;28;20101;-79
2021/03/07 09:07:05;;;;;;;20.38;13.98;;;6.30;99.90;;;7.76;58.34;101588.88;5060050;28;20434;-78
2021/03/07 09:09:31;;;;;;;18.80;12.52;;;6.40;99.90;;;7.93;56.75;101584.25;5040210;28;20112;-84
2021/03/07 09:12:02;;;;;;;21.27;14.18;;;6.40;99.90;;;8.23;56.96;101584.56;5053339;28;20051;-83
2021/03/07 09:14:37;;;;;;;20.88;13.32;;;6.50;99.90;;;8.53;54.66;101581.00;5057859;28;20462;-85
2021/03/07 09:17:18;;;;;;;21.20;13.73;;;6.80;99.90;;;8.65;54.53;101581.19;5042640;28;20511;-84
2021/03/07 09:19:44;;;;;;;15.80;11.23;;;7.00;99.90;;;8.65;53.58;101586.75;5051355;28;20057;-80
2021/03/07 09:22:15;;;;;;;17.48;11.00;;;7.20;99.90;;;8.70;52.63;101589.38;5039969;28;20540;-80
2021/03/07 09:25:03;;;;;;;20.17;11.63;;;7.30;99.90;;;9.07;51.35;101584.41;5054676;28;20025;-83
2021/03/07 09:27:38;;;;;;;14.65;10.90;;;7.40;99.90;;;9.17;51.62;101584.91;5052324;28;20022;-84
2021/03/07 09:30:19;;;;;;;13.47;9.77;;;7.50;99.90;;;9.43;50.73;101577.41;5040307;28;20174;-83
2021/03/07 09:32:51;;;;;;;13.63;8.10;;;7.60;99.90;;;9.51;48.97;101572.94;5061944;28;20504;-84
2021/03/07 09:35:32;;;;;;;10.68;7.18;;;7.80;99.40;;;9.45;49.00;101575.09;5041279;28;20033;-85
2021/03/07 09:38:07;;;;;;;7.93;6.00;;;7.90;98.30;;;10.04;47.89;101575.34;5067562;28;20256;-86
2021/03/07 09:40:42;;;;;;;12.40;7.45;;;8.20;96.50;;;10.08;47.38;101577.13;5064605;28;20037;-85
2021/03/07 09:43:18;;;;;;;8.30;5.63;;;8.40;94.30;;;9.82;46.34;101562.44;5050646;28;20523;-84
2021/03/07 09:45:50;;;;;;;11.65;6.90;;;8.60;89.50;;;10.03;46.97;101574.53;5052592;28;20575;-87
2021/03/07 09:48:22;;;;;;;7.97;4.90;;;8.60;91.10;;;10.24;46.55;101579.44;5056175;28;20032;-83
2021/03/07 09:50:48;;;;;;;7.80;4.22;;;8.80;89.50;;;10.19;46.04;101565.63;5060818;28;20025;-80
2021/03/07 09:53:14;;;;;;;8.75;4.82;;;8.80;87.80;;;9.61;46.82;101564.25;5042280;28;20089;-81
2021/03/07 09:55:42;;;;;;;6.53;3.97;;;8.20;89.80;;;9.48;47.97;101559.66;5047484;28;20017;-84
2021/03/07 09:58:12;;;;;;;9.70;4.00;;;8.00;92.10;;;9.15;48.31;101562.09;5047120;28;20029;-83
2021/03/07 10:00:48;;;;;;;5.75;3.58;;;7.60;92.40;;;8.47;49.31;101560.00;5047471;28;20029;-82
2021/03/07 10:03:25;;;;;;;;;;;7.20;93.90;;;8.00;51.01;101563.50;5046869;28;20034;-83
2021/03/07 10:06:19;;;;;;;6.63;3.03;;;6.80;96.40;;;7.92;50.12;101560.38;5043834;28;19995;-81
2021/03/07 10:09:04;;;;;;;5.97;3.13;;;6.70;96.20;;;7.82;50.68;101562.59;5053485;28;20025;-85
2021/03/07 10:11:31;;;;;;;6.47;3.22;;;6.50;98.10;;;7.94;50.62;101566.41;5053167;28;20035;-82
2021/03/07 10:14:05;;;;;;;6.15;3.33;;;6.50;99.70;;;7.96;49.86;101560.56;5035017;28;20120;-84
2021/03/07 10:16:35;;;;;;;5.55;3.38;;;6.50;97.80;;;7.91;50.45;101567.06;5044291;28;20112;-84
2021/03/07 10:19:14;;;;;;;6.85;4.15;;;6.40;99.60;;;8.12;50.46;101567.34;5039513;28;20030;-85
2021/03/07 10:21:45;;;;;;;6.20;3.72;;;6.60;99.90;;;8.66;49.83;101559.72;5043793;28;20041;-83
2021/03/07 10:24:17;;;;;;;5.95;3.55;;;7.10;99.50;;;8.94;48.52;101555.53;5044079;28;20025;-80
2021/03/07 10:26:51;;;;;;;6.00;3.72;;;7.30;95.50;;;9.78;47.33;101555.88;5052447;28;20040;-83
2021/03/07 10:29:31;;;;;;;5.82;3.10;;;7.90;93.90;;;10.19;44.13;101552.50;5052778;28;20040;-81
2021/03/07 10:32:20;;;;;;;7.35;3.70;;;8.40;85.70;;;10.99;43.33;101554.22;5034394;28;20043;-82
2021/03/07 10:34:53;;;;;;;5.57;3.83;;;9.00;82.80;;;10.87;42.20;101562.53;5042913;28;20107;-79
2021/03/07 10:37:36;;;;;;;5.05;3.75;;;9.10;77.00;;;10.38;44.09;101554.88;5044374;28;20388;-83
2021/03/07 10:40:13;;;;;;;8.23;4.07;;;9.00;78.40;;;10.27;43.63;101553.63;5033707;28;20029;-82
2021/03/07 10:42:43;;;;;;;8.73;5.60;;;8.70;78.20;;;9.28;44.99;101554.75;5043991;28;20025;-85
2021/03/07 10:45:15;;;;;;;9.35;5.10;;;8.10;79.50;;;8.42;47.21;101551.78;5055007;28;20040;-78
2021/03/07 10:47:43;;;;;;;7.93;4.35;;;7.40;85.80;;;7.93;49.06;101559.22;5063599;28;20009;-77
2021/03/07 10:50:11;;;;;;;9.23;5.20;;;7.00;90.30;;;7.96;48.78;101555.78;5060129;28;20033;-82